Time;durP1;ratioP1;P1;durP2;ratioP2;P2;SDS_P1;SDS_P2;PMS_P1;PMS_P2;Temp;Humidity;BMP_temperature;BMP_pressure;BME280_temperature;BME280_humidity;BME280_pressure;Samples;Min_cycle;Max_cycle;Signal;HPM_P1;HPM_P2
2022/10/12 00:00:02;;;;;;;6.93;4.50;;;;;;;4.61;100.00;101700.72;698503;28;1396;-64
2022/10/12 00:00:32;;;;;;;9.05;4.70;;;;;;;4.60;100.00;101704.13;696994;28;1095;-64
2022/10/12 00:00:53;;;;;;;7.85;4.60;;;;;;;4.57;100.00;101699.72;696631;28;4604;-64
2022/10/12 00:01:13;;;;;;;8.37;4.80;;;;;;;4.59;100.00;101697.19;697360;28;1929;-64
2022/10/12 00:01:33;;;;;;;7.97;4.93;;;;;;;4.62;100.00;101699.88;697734;28;1178;-65
2022/10/12 00:01:54;;;;;;;8.47;4.83;;;;;;;4.62;100.00;101697.28;696432;28;1237;-65
2022/10/12 00:02:14;;;;;;;7.50;4.50;;;;;;;4.65;100.00;101693.94;695600;28;1292;-63
2022/10/12 00:02:34;;;;;;;7.88;4.60;;;;;;;4.66;100.00;101695.69;694493;28;1197;-64
2022/10/12 00:02:55;;;;;;;8.03;4.60;;;;;;;4.62;100.00;101689.50;694674;28;1114;-63
2022/10/12 00:03:16;;;;;;;8.13;4.67;;;;;;;4.55;100.00;101696.16;695303;28;1261;-64
2022/10/12 00:03:37;;;;;;;8.18;4.80;;;;;;;4.52;100.00;101692.59;694372;28;1123;-64
2022/10/12 00:03:57;;;;;;;9.18;4.60;;;;;;;4.47;100.00;101697.59;694701;28;4325;-63
2022/10/12 00:04:17;;;;;;;8.97;4.40;;;;;;;4.47;100.00;101697.59;694636;28;1273;-64
2022/10/12 00:04:38;;;;;;;8.33;4.47;;;;;;;4.49;100.00;101697.69;694826;28;1122;-63
2022/10/12 00:04:58;;;;;;;7.20;4.45;;;;;;;4.50;100.00;101697.72;694579;28;1642;-66
2022/10/12 00:05:18;;;;;;;7.83;4.50;;;;;;;4.47;100.00;101699.31;695065;28;1301;-65
2022/10/12 00:05:39;;;;;;;9.73;4.78;;;;;;;4.48;100.00;101699.38;695334;28;1150;-65
2022/10/12 00:06:01;;;;;;;8.77;4.53;;;;;;;4.55;100.00;101703.94;694698;28;1301;-65
2022/10/12 00:06:23;;;;;;;9.02;4.47;;;;;;;4.64;100.00;101695.66;695224;28;1250;-65
2022/10/12 00:06:43;;;;;;;9.00;4.50;;;;;;;4.64;100.00;101705.09;695754;28;1171;-64
2022/10/12 00:07:03;;;;;;;9.77;4.68;;;;;;;4.66;100.00;101699.16;694910;28;4227;-64
2022/10/12 00:07:24;;;;;;;9.83;4.37;;;;;;;4.63;100.00;101691.28;694005;28;1092;-65
2022/10/12 00:07:44;;;;;;;7.47;4.22;;;;;;;4.60;100.00;101693.78;693478;28;1199;-65
2022/10/12 00:08:05;;;;;;;8.63;4.60;;;;;;;4.59;100.00;101699.75;693589;28;1079;-65
2022/10/12 00:08:25;;;;;;;7.88;4.65;;;;;;;4.58;100.00;101698.91;693574;28;1150;-65
2022/10/12 00:08:47;;;;;;;8.63;5.00;;;;;;;4.59;100.00;101698.03;692951;28;1115;-64
2022/10/12 00:09:07;;;;;;;7.85;4.85;;;;;;;4.65;100.00;101693.94;696180;28;1231;-64
2022/10/12 00:09:27;;;;;;;6.77;4.50;;;;;;;4.62;100.00;101697.28;697153;28;1422;-65
2022/10/12 00:09:48;;;;;;;7.43;4.43;;;;;;;4.58;100.00;101700.59;695977;28;4515;-65
2022/10/12 00:10:08;;;;;;;7.65;4.38;;;;;;;4.63;100.00;101690.41;696036;28;1306;-64
2022/10/12 00:10:29;;;;;;;8.93;4.47;;;;;;;4.62;100.00;101697.28;696421;28;1142;-65
2022/10/12 00:10:49;;;;;;;10.43;4.82;;;;;;;4.55;100.00;101692.72;694993;28;1063;-65
2022/10/12 00:11:13;;;;;;;8.77;4.60;;;;;;;4.53;100.00;101700.44;695661;28;1329;-65
2022/10/12 00:11:33;;;;;;;7.03;4.30;;;;;;;4.53;100.00;101699.56;695667;28;1250;-65
2022/10/12 00:11:54;;;;;;;7.77;4.43;;;;;;;4.50;100.00;101702.00;695069;28;1099;-65
2022/10/12 00:12:14;;;;;;;8.10;4.57;;;;;;;4.54;100.00;101693.53;696223;28;1091;-65
2022/10/12 00:12:35;;;;;;;7.30;4.43;;;;;;;4.54;100.00;101694.44;691615;28;1301;-65
2022/10/12 00:12:55;;;;;;;7.20;4.22;;;;;;;4.58;100.00;101695.41;690586;28;4478;-65
2022/10/12 00:13:16;;;;;;;7.77;4.40;;;;;;;4.61;100.00;101700.72;690464;28;1109;-64
2022/10/12 00:13:36;;;;;;;7.40;4.17;;;;;;;4.61;100.00;101695.53;688516;28;1222;-65
2022/10/12 00:13:57;;;;;;;9.13;4.45;;;;;;;4.57;100.00;101704.03;688902;28;1318;-65
2022/10/12 00:14:18;;;;;;;8.63;4.50;;;;;;;4.52;100.00;101701.25;689941;28;1115;-65
2022/10/12 00:14:39;;;;;;;6.80;4.32;;;;;;;4.50;100.00;101692.56;692953;28;1217;-65
2022/10/12 00:14:59;;;;;;;7.78;4.40;;;;;;;4.50;100.00;101699.41;692901;28;1395;-64
2022/10/12 00:15:20;;;;;;;7.73;4.27;;;;;;;4.50;100.00;101692.56;694242;28;1282;-65
2022/10/12 00:15:40;;;;;;;7.03;4.20;;;;;;;4.50;100.00;101697.72;690679;28;1286;-65
2022/10/12 00:16:05;;;;;;;7.43;4.60;;;;;;;4.50;100.00;101696.84;693552;28;4464;-65
2022/10/12 00:16:30;;;;;;;8.55;4.63;;;;;;;4.54;100.00;101694.44;692421;28;1255;-65
2022/10/12 00:16:51;;;;;;;9.27;4.50;;;;;;;4.58;100.00;101700.59;690050;28;1268;-64
2022/10/12 00:17:11;;;;;;;9.33;4.33;;;;;;;4.55;100.00;101700.47;690686;28;1150;-65
2022/10/12 00:17:31;;;;;;;9.83;4.00;;;;;;;4.51;100.00;101696.00;692102;28;1115;-66
2022/10/12 00:17:52;;;;;;;8.23;4.40;;;;;;;4.48;100.00;101703.69;696096;28;1146;-64
2022/10/12 00:18:12;;;;;;;8.20;4.50;;;;;;;4.49;100.00;101695.09;694749;28;1257;-65
2022/10/12 00:18:34;;;;;;;8.27;4.50;;;;;;;4.47;100.00;101694.13;696250;28;1344;-65
2022/10/12 00:18:56;;;;;;;6.93;4.40;;;;;;;4.41;100.00;101695.66;694857;28;4439;-65
2022/10/12 00:19:16;;;;;;;6.32;4.32;;;;;;;4.45;100.00;101698.41;694835;28;1270;-65
2022/10/12 00:19:37;;;;;;;7.00;4.30;;;;;;;4.45;100.00;101698.41;694457;28;1155;-64
2022/10/12 00:19:58;;;;;;;7.80;4.43;;;;;;;4.47;100.00;101699.31;695910;28;1150;-65
2022/10/12 00:20:18;;;;;;;7.70;4.30;;;;;;;4.54;100.00;101697.03;691847;28;1372;-65
2022/10/12 00:20:38;;;;;;;7.07;4.00;;;;;;;4.58;100.00;101698.91;691054;28;1211;-65
2022/10/12 00:21:04;;;;;;;7.50;4.40;;;;;;;4.53;100.00;101697.84;691180;28;1195;-65
2022/10/12 00:21:26;;;;;;;8.35;4.20;;;;;;;4.43;100.00;101695.72;693862;28;1914;-65
2022/10/12 00:21:47;;;;;;;7.25;4.38;;;;;;;4.40;100.00;101695.63;693060;28;4303;-65
2022/10/12 00:22:07;;;;;;;7.70;4.90;;;;;;;4.36;100.00;101697.22;694744;28;1161;-64
2022/10/12 00:22:27;;;;;;;7.63;4.57;;;;;;;4.38;100.00;101692.97;696419;28;1068;-64
2022/10/12 00:22:48;;;;;;;7.33;4.20;;;;;;;4.40;100.00;101699.09;698670;28;1269;-64
2022/10/12 00:23:09;;;;;;;8.73;4.37;;;;;;;4.44;100.00;101697.50;697941;28;1052;-64
2022/10/12 00:23:30;;;;;;;8.30;4.45;;;;;;;4.51;100.00;101703.78;695606;28;1102;-65
2022/10/12 00:23:51;;;;;;;10.77;4.43;;;;;;;4.52;100.00;101702.97;694672;28;1140;-65
2022/10/12 00:24:11;;;;;;;7.27;4.30;;;;;;;4.46;100.00;101702.72;695263;28;1587;-65
2022/10/12 00:24:31;;;;;;;8.43;4.40;;;;;;;4.39;100.00;101704.22;695780;28;1142;-68
2022/10/12 00:24:52;;;;;;;9.57;4.50;;;;;;;4.30;100.00;101699.56;695979;28;4369;-65
2022/10/12 00:25:13;;;;;;;8.77;4.43;;;;;;;4.24;100.00;101705.41;694860;28;1083;-65
2022/10/12 00:25:38;;;;;;;7.65;4.43;;;;;;;4.19;100.00;101700.88;692879;28;1052;-65
2022/10/12 00:26:03;;;;;;;8.32;4.30;;;;;;;4.18;100.00;101710.34;693571;28;1016;-65
2022/10/12 00:26:25;;;;;;;8.45;4.30;;;;;;;4.19;100.00;101704.34;695476;28;1266;-65
2022/10/12 00:26:49;;;;;;;8.63;4.53;;;;;;;4.21;100.00;101705.28;695434;28;1100;-65
2022/10/12 00:27:09;;;;;;;8.55;4.68;;;;;;;4.23;100.00;101701.03;694639;28;1308;-65
2022/10/12 00:27:29;;;;;;;8.40;4.65;;;;;;;4.29;100.00;101707.28;695028;28;1063;-65
2022/10/12 00:27:50;;;;;;;8.67;4.57;;;;;;;4.34;100.00;101693.69;693795;28;4306;-65
2022/10/12 00:28:10;;;;;;;10.23;4.63;;;;;;;4.38;100.00;101703.31;694625;28;1115;-65
2022/10/12 00:28:31;;;;;;;9.07;4.57;;;;;;;4.34;100.00;101705.75;695805;28;1103;-65
2022/10/12 00:28:59;;;;;;;7.68;4.25;;;;;;;4.36;100.00;101698.91;696648;28;1138;-64
2022/10/12 00:29:20;;;;;;;8.88;4.53;;;;;;;4.39;100.00;101702.50;696174;28;1262;-65
2022/10/12 00:29:40;;;;;;;8.57;4.25;;;;;;;4.35;100.00;101695.44;692540;28;1360;-64
2022/10/12 00:30:01;;;;;;;8.27;4.40;;;;;;;4.30;100.00;101699.56;694712;28;1190;-65
2022/10/12 00:30:21;;;;;;;8.52;4.50;;;;;;;4.24;100.00;101699.34;694537;28;1305;-65
2022/10/12 00:30:41;;;;;;;8.13;4.60;;;;;;;4.23;100.00;101698.44;694558;28;1278;-66
2022/10/12 00:31:07;;;;;;;7.60;4.70;;;;;;;4.30;100.00;101699.56;694630;28;4310;-65
2022/10/12 00:31:29;;;;;;;6.45;4.20;;;;;;;4.35;100.00;101698.03;694220;28;1138;-65
2022/10/12 00:31:49;;;;;;;7.20;4.45;;;;;;;4.34;100.00;101701.44;694395;28;1102;-64
2022/10/12 00:32:09;;;;;;;8.00;4.68;;;;;;;4.34;100.00;101696.28;694525;28;1111;-66
2022/10/12 00:32:30;;;;;;;7.67;4.33;;;;;;;4.33;100.00;101703.97;695240;28;1063;-65
2022/10/12 00:32:50;;;;;;;7.57;4.20;;;;;;;4.37;100.00;101698.97;695781;28;1134;-64
2022/10/12 00:33:10;;;;;;;9.48;4.80;;;;;;;4.36;100.00;101699.81;694555;28;1352;-65
2022/10/12 00:33:31;;;;;;;6.70;4.13;;;;;;;4.40;100.00;101699.09;695312;28;1038;-65
2022/10/12 00:33:51;;;;;;;7.05;4.18;;;;;;;4.42;100.00;101701.75;694286;28;4313;-64
2022/10/12 00:34:12;;;;;;;7.00;4.13;;;;;;;4.39;100.00;101707.69;696636;28;1098;-65
2022/10/12 00:34:32;;;;;;;8.13;4.15;;;;;;;4.31;100.00;101706.53;695571;28;1027;-65
2022/10/12 00:34:53;;;;;;;8.90;4.37;;;;;;;4.19;100.00;101706.06;693371;28;1262;-64
2022/10/12 00:35:13;;;;;;;8.73;4.40;;;;;;;4.11;100.00;101703.16;694392;28;1181;-64
2022/10/12 00:35:33;;;;;;;6.73;4.13;;;;;;;4.10;100.00;101704.00;692693;28;1241;-64
2022/10/12 00:35:54;;;;;;;7.70;4.15;;;;;;;4.11;100.00;101712.63;692594;28;1115;-65
2022/10/12 00:36:26;;;;;;;7.23;4.13;;;;;;;4.11;100.00;101704.88;693269;28;1064;-65
2022/10/12 00:36:46;;;;;;;7.82;4.53;;;;;;;4.11;100.00;101712.63;693410;28;4340;-64
2022/10/12 00:37:07;;;;;;;7.57;4.70;;;;;;;4.15;100.00;101704.16;691285;28;1599;-65
2022/10/12 00:37:27;;;;;;;8.90;4.53;;;;;;;4.19;100.00;101706.06;688368;28;1442;-65
2022/10/12 00:37:52;;;;;;;7.22;4.30;;;;;;;4.22;100.00;101711.34;689256;28;1143;-64
2022/10/12 00:38:12;;;;;;;8.25;4.30;;;;;;;4.28;100.00;101706.41;686981;28;1088;-63
2022/10/12 00:38:32;;;;;;;8.07;4.32;;;;;;;4.30;100.00;101709.91;687897;28;1155;-63
2022/10/12 00:38:54;;;;;;;7.90;4.30;;;;;;;4.33;100.00;101704.84;688761;28;1182;-63
2022/10/12 00:39:15;;;;;;;7.35;4.47;;;;;;;4.32;100.00;101703.13;692118;28;1091;-63
2022/10/12 00:39:36;;;;;;;9.50;4.50;;;;;;;4.28;100.00;101702.91;695207;28;1004;-63
2022/10/12 00:39:56;;;;;;;10.47;4.60;;;;;;;4.24;100.00;101707.13;693469;28;4286;-65
2022/10/12 00:40:16;;;;;;;7.43;4.30;;;;;;;4.25;100.00;101708.84;696850;28;1198;-64
2022/10/12 00:40:37;;;;;;;7.10;4.37;;;;;;;4.23;100.00;101706.22;696097;28;1083;-65
2022/10/12 00:40:57;;;;;;;8.07;4.40;;;;;;;4.19;100.00;101703.47;694845;28;1126;-65
2022/10/12 00:41:22;;;;;;;7.40;4.13;;;;;;;4.07;100.00;101707.34;695491;28;1918;-65
2022/10/12 00:41:43;;;;;;;8.63;4.05;;;;;;;4.03;100.00;101707.16;695931;28;1056;-64
2022/10/12 00:42:03;;;;;;;8.05;4.53;;;;;;;4.03;100.00;101708.06;691978;28;1507;-65
2022/10/12 00:42:24;;;;;;;9.10;4.25;;;;;;;4.08;100.00;101706.53;691957;28;1492;-64
2022/10/12 00:42:44;;;;;;;8.23;4.23;;;;;;;4.19;100.00;101709.50;692324;28;4425;-64
2022/10/12 00:43:34;;;;;;;8.80;4.38;;;;;;;4.34;100.00;101705.75;693675;28;1599;-65
2022/10/12 00:43:55;;;;;;;7.57;4.10;;;;;;;4.36;100.00;101705.00;694246;28;1161;-64
2022/10/12 00:44:39;;;;;;;7.38;4.10;;;;;;;4.28;100.00;101709.00;694868;28;4999;-64
2022/10/12 00:45:00;;;;;;;8.00;4.57;;;;;;;4.28;100.00;101700.34;693061;28;1155;-65
2022/10/12 00:45:22;;;;;;;7.70;4.60;;;;;;;4.26;100.00;101701.19;693266;28;1370;-65
2022/10/12 00:45:43;;;;;;;9.05;4.70;;;;;;;4.24;100.00;101704.53;693595;28;1258;-63
2022/10/12 00:46:17;;;;;;;8.87;4.47;;;;;;;4.18;100.00;101710.34;692160;28;4421;-65
2022/10/12 00:46:43;;;;;;;8.50;4.82;;;;;;;4.14;100.00;101703.31;691898;28;1243;-65
2022/10/12 00:47:11;;;;;;;6.95;4.10;;;;;;;4.09;100.00;101705.69;695689;28;1383;-64
2022/10/12 00:47:38;;;;;;;7.82;4.18;;;;;;;4.01;100.00;101701.06;695999;28;1138;-64
2022/10/12 00:47:59;;;;;;;8.43;4.53;;;;;;;3.97;100.00;101701.75;694015;28;1084;-64
2022/10/12 00:48:21;;;;;;;7.72;4.60;;;;;;;3.95;100.00;101706.88;695986;28;1173;-64
2022/10/12 00:48:43;;;;;;;7.10;4.20;;;;;;;3.96;100.00;101703.47;694275;28;1385;-64
2022/10/12 00:49:13;;;;;;;8.70;4.20;;;;;;;3.99;100.00;101703.59;694253;28;4256;-64
2022/10/12 00:49:34;;;;;;;7.97;4.38;;;;;;;4.04;100.00;101704.66;695310;28;1357;-63
2022/10/12 00:50:01;;;;;;;8.38;4.50;;;;;;;4.07;100.00;101696.09;690966;28;1180;-63
2022/10/12 00:50:33;;;;;;;8.02;4.30;;;;;;;4.07;100.00;101699.59;692182;28;1405;-65
2022/10/12 00:50:56;;;;;;;6.25;4.10;;;;;;;4.02;100.00;101698.53;691622;28;1118;-65
2022/10/12 00:51:19;;;;;;;7.00;3.90;;;;;;;3.98;100.00;101699.22;692624;28;1209;-65
2022/10/12 00:51:42;;;;;;;8.90;4.18;;;;;;;3.95;100.00;101696.53;695531;28;1272;-64
2022/10/12 00:52:07;;;;;;;8.57;4.40;;;;;;;3.95;100.00;101701.69;695503;28;4427;-64
2022/10/12 00:52:36;;;;;;;7.53;4.60;;;;;;;3.92;100.00;101707.63;695829;28;1092;-64
2022/10/12 00:53:08;;;;;;;7.20;4.55;;;;;;;3.92;100.00;101696.41;694735;28;1209;-64
2022/10/12 00:53:36;;;;;;;7.68;4.28;;;;;;;4.00;100.00;101696.69;693928;28;1178;-65
2022/10/12 00:54:01;;;;;;;7.95;4.25;;;;;;;3.99;100.00;101698.41;695725;28;1173;-65
2022/10/12 00:54:29;;;;;;;9.40;4.40;;;;;;;3.98;100.00;101699.22;696461;28;1383;-64
2022/10/12 00:54:51;;;;;;;8.73;4.40;;;;;;;3.92;100.00;101693.81;695378;28;4313;-64
2022/10/12 00:55:16;;;;;;;7.75;4.50;;;;;;;3.91;100.00;101697.22;693533;28;1146;-63
2022/10/12 00:55:43;;;;;;;8.10;4.00;;;;;;;3.85;100.00;101697.88;695304;28;1287;-63
2022/10/12 00:56:08;;;;;;;8.27;4.50;;;;;;;3.82;100.00;101694.28;695655;28;1222;-65
2022/10/12 00:56:32;;;;;;;8.40;4.13;;;;;;;3.78;100.00;101698.47;694067;28;1099;-65
2022/10/12 00:56:54;;;;;;;9.55;4.22;;;;;;;3.78;100.00;101700.13;693975;28;1226;-64
2022/10/12 00:57:18;;;;;;;7.43;4.18;;;;;;;3.84;100.00;101697.81;695617;28;1123;-64
2022/10/12 00:57:39;;;;;;;6.90;4.05;;;;;;;3.87;100.00;101696.22;695798;28;1314;-64
2022/10/12 00:57:59;;;;;;;6.70;4.07;;;;;;;3.88;100.00;101697.97;695707;28;4325;-65
2022/10/12 00:58:21;;;;;;;8.23;4.43;;;;;;;3.83;100.00;101699.50;695106;28;1084;-64
2022/10/12 00:58:41;;;;;;;8.20;4.20;;;;;;;3.79;100.00;101697.63;694854;28;1103;-64
2022/10/12 00:59:06;;;;;;;8.70;4.43;;;;;;;3.79;100.00;101695.03;694647;28;1106;-64
2022/10/12 00:59:37;;;;;;;8.20;4.47;;;;;;;3.81;100.00;101697.66;695856;28;1133;-64
2022/10/12 01:00:02;;;;;;;7.00;4.07;;;;;;;3.81;100.00;101695.09;696767;28;1043;-64
2022/10/12 01:00:23;;;;;;;6.20;4.10;;;;;;;3.86;100.00;101696.16;692955;28;1024;-63
2022/10/12 01:00:44;;;;;;;7.43;4.38;;;;;;;3.86;100.00;101702.22;686856;28;1255;-64
2022/10/12 01:01:06;;;;;;;7.40;4.32;;;;;;;3.83;100.00;101698.63;684711;28;5216;-64
2022/10/12 01:01:27;;;;;;;7.35;4.72;;;;;;;3.81;100.00;101689.91;684779;28;1914;-65
2022/10/12 01:01:48;;;;;;;7.00;4.38;;;;;;;3.78;100.00;101693.28;683019;28;1141;-65
2022/10/12 01:02:08;;;;;;;7.07;4.13;;;;;;;3.79;100.00;101695.03;684683;28;1164;-63
2022/10/12 01:02:33;;;;;;;7.07;4.22;;;;;;;3.81;100.00;101698.56;685802;28;1131;-64
2022/10/12 01:02:54;;;;;;;7.95;4.10;;;;;;;3.81;100.00;101698.56;689850;28;1028;-65
2022/10/12 01:03:16;;;;;;;6.72;4.20;;;;;;;3.80;100.00;101693.34;688458;28;1408;-64
2022/10/12 01:03:37;;;;;;;7.30;4.32;;;;;;;3.77;100.00;101698.38;690619;28;1174;-64
2022/10/12 01:03:57;;;;;;;7.20;4.10;;;;;;;3.81;100.00;101693.41;694918;28;4295;-64
2022/10/12 01:04:18;;;;;;;6.53;4.17;;;;;;;3.84;100.00;101693.50;696110;28;1229;-64
2022/10/12 01:04:39;;;;;;;7.43;4.10;;;;;;;3.83;100.00;101691.75;696558;28;1202;-65
2022/10/12 01:05:01;;;;;;;7.88;4.47;;;;;;;3.81;100.00;101697.66;695446;28;1269;-65
2022/10/12 01:05:22;;;;;;;7.28;4.55;;;;;;;3.77;100.00;101695.78;695782;28;1364;-63
2022/10/12 01:05:42;;;;;;;8.88;4.25;;;;;;;3.74;100.00;101694.84;696087;28;1111;-64
2022/10/12 01:06:04;;;;;;;9.60;4.30;;;;;;;3.78;100.00;101697.56;692124;28;1140;-65
2022/10/12 01:06:27;;;;;;;9.13;4.30;;;;;;;3.79;100.00;101689.84;692188;28;990;-65
2022/10/12 01:06:47;;;;;;;8.40;4.35;;;;;;;3.81;100.00;101689.91;695158;28;4339;-64
2022/10/12 01:07:08;;;;;;;7.83;4.27;;;;;;;3.81;100.00;101692.50;695367;28;1095;-64
2022/10/12 01:07:28;;;;;;;8.40;4.13;;;;;;;3.81;100.00;101697.66;695387;28;1040;-64
2022/10/12 01:07:49;;;;;;;8.60;4.40;;;;;;;3.79;100.00;101694.16;697829;28;1004;-65
2022/10/12 01:08:09;;;;;;;8.50;4.22;;;;;;;3.76;100.00;101692.31;697950;28;1063;-65
2022/10/12 01:08:30;;;;;;;6.95;3.90;;;;;;;3.79;100.00;101688.97;697490;28;1137;-64
2022/10/12 01:08:52;;;;;;;5.97;4.10;;;;;;;3.83;100.00;101694.31;696118;28;1168;-64
2022/10/12 01:09:13;;;;;;;7.53;4.30;;;;;;;3.89;100.00;101696.28;694910;28;1149;-64
2022/10/12 01:09:34;;;;;;;7.75;4.30;;;;;;;3.86;100.00;101684.13;693971;28;1112;-63
2022/10/12 01:09:54;;;;;;;8.50;4.30;;;;;;;3.84;100.00;101697.81;693961;28;4312;-64
2022/10/12 01:10:15;;;;;;;7.70;4.17;;;;;;;3.89;100.00;101691.09;694866;28;1048;-64
2022/10/12 01:10:35;;;;;;;6.97;3.97;;;;;;;3.90;100.00;101687.69;693329;28;1169;-64
2022/10/12 01:10:56;;;;;;;7.33;4.10;;;;;;;3.90;100.00;101691.19;696207;28;1305;-65
2022/10/12 01:11:16;;;;;;;7.85;4.07;;;;;;;3.91;100.00;101695.50;694166;28;1149;-64
2022/10/12 01:11:37;;;;;;;8.10;4.30;;;;;;;3.96;100.00;101689.63;694681;28;1221;-63
2022/10/12 01:11:57;;;;;;;6.53;4.22;;;;;;;3.97;100.00;101688.81;693868;28;1333;-64
2022/10/12 01:12:18;;;;;;;7.77;4.00;;;;;;;3.93;100.00;101690.38;693894;28;1072;-64
2022/10/12 01:12:41;;;;;;;7.47;4.00;;;;;;;3.92;100.00;101692.09;695229;28;1143;-64
2022/10/12 01:13:02;;;;;;;6.78;4.10;;;;;;;3.90;100.00;101693.78;692300;28;4313;-64
2022/10/12 01:13:22;;;;;;;7.15;3.90;;;;;;;3.87;100.00;101685.88;696339;28;1047;-64
2022/10/12 01:13:43;;;;;;;6.63;3.90;;;;;;;3.87;100.00;101691.03;695938;28;1068;-65
2022/10/12 01:14:03;;;;;;;6.77;4.07;;;;;;;3.94;100.00;101684.41;695569;28;1134;-63
2022/10/12 01:14:24;;;;;;;7.65;4.30;;;;;;;3.96;100.00;101693.13;695979;28;1054;-64
2022/10/12 01:14:44;;;;;;;7.82;4.10;;;;;;;3.89;100.00;101692.00;696150;28;1087;-64
2022/10/12 01:15:05;;;;;;;8.50;4.00;;;;;;;3.83;100.00;101691.75;696731;28;1039;-65
2022/10/12 01:15:32;;;;;;;6.47;4.18;;;;;;;3.89;100.00;101691.09;696737;28;1984;-63
2022/10/12 01:16:03;;;;;;;8.45;4.13;;;;;;;3.95;100.00;101686.19;696036;28;4375;-64
2022/10/12 01:16:27;;;;;;;6.85;3.88;;;;;;;3.99;100.00;101688.06;694433;28;1229;-63
2022/10/12 01:17:00;;;;;;;7.85;4.00;;;;;;;4.06;100.00;101684.00;696157;28;1079;-63
2022/10/12 01:17:30;;;;;;;6.80;3.80;;;;;;;4.03;100.00;101689.03;692786;28;1266;-64
2022/10/12 01:18:11;;;;;;;7.60;3.97;;;;;;;3.96;100.00;101685.38;695363;28;1008;-64
2022/10/12 01:18:49;;;;;;;8.30;3.97;;;;;;;3.91;100.00;101689.47;697669;28;1032;-64
2022/10/12 01:19:28;;;;;;;7.13;4.03;;;;;;;3.95;100.00;101686.19;693427;28;5371;-64
2022/10/12 01:20:27;;;;;;;8.02;4.00;;;;;;;3.86;100.00;101686.72;696978;28;1130;-64
2022/10/12 01:20:53;;;;;;;7.20;4.05;;;;;;;3.69;100.00;101679.97;688977;28;1184;-64
2022/10/12 01:21:18;;;;;;;7.40;3.88;;;;;;;3.83;100.00;101688.28;691743;28;1964;-63
2022/10/12 01:21:46;;;;;;;7.68;4.15;;;;;;;3.90;100.00;101687.69;695028;28;1204;-64
2022/10/12 01:22:11;;;;;;;7.32;4.05;;;;;;;3.78;100.00;101692.38;692826;28;4751;-65
2022/10/12 01:22:40;;;;;;;7.80;4.05;;;;;;;3.81;100.00;101687.31;694038;28;1068;-63
2022/10/12 01:23:16;;;;;;;7.60;3.95;;;;;;;3.95;100.00;101690.47;694259;28;1195;-64
2022/10/12 01:24:11;;;;;;;9.32;4.38;;;;;;;3.99;100.00;101688.06;693633;28;1228;-64
2022/10/12 01:24:49;;;;;;;7.03;3.80;;;;;;;3.88;100.00;101690.22;693641;28;1083;-64
2022/10/12 01:25:34;;;;;;;6.65;3.80;;;;;;;3.87;100.00;101688.44;692004;28;5325;-64
2022/10/12 01:26:05;;;;;;;6.80;3.72;;;;;;;3.81;100.00;101689.91;692274;28;1064;-64
2022/10/12 01:27:04;;;;;;;7.72;3.88;;;;;;;3.81;100.00;101697.66;693143;28;1174;-64
2022/10/12 01:27:24;;;;;;;6.97;4.20;;;;;;;3.78;100.00;101687.22;695385;28;1149;-64
2022/10/12 01:27:48;;;;;;;6.57;3.83;;;;;;;3.75;100.00;101691.44;694857;28;4423;-64
2022/10/12 01:28:27;;;;;;;7.05;4.30;;;;;;;3.77;100.00;101688.94;695950;28;1247;-64
2022/10/12 01:28:53;;;;;;;8.27;4.00;;;;;;;3.80;100.00;101688.16;695686;28;1067;-64
2022/10/12 01:29:33;;;;;;;7.35;3.92;;;;;;;3.81;100.00;101689.91;696070;28;1291;-65
2022/10/12 01:30:13;;;;;;;6.25;3.72;;;;;;;3.77;100.00;101685.44;691275;28;1160;-63
2022/10/12 01:30:40;;;;;;;9.00;3.90;;;;;;;3.69;100.00;101683.44;691916;28;1114;-64
2022/10/12 01:31:27;;;;;;;7.85;3.85;;;;;;;3.65;100.00;101683.25;689717;28;4357;-63
2022/10/12 01:32:20;;;;;;;6.68;4.15;;;;;;;3.70;100.00;101680.03;689083;28;1422;-64
2022/10/12 01:32:55;;;;;;;7.85;4.10;;;;;;;3.79;100.00;101688.97;692576;28;1242;-64
2022/10/12 01:33:28;;;;;;;6.20;3.70;;;;;;;3.89;100.00;101686.81;691658;28;1103;-64
2022/10/12 01:33:57;;;;;;;6.70;3.60;;;;;;;3.87;100.00;101682.41;693681;28;4342;-63
2022/10/12 01:34:55;;;;;;;8.65;3.80;;;;;;;3.85;100.00;101679.75;695047;28;1122;-64
2022/10/12 01:35:24;;;;;;;7.35;3.83;;;;;;;3.96;100.00;101681.88;696054;28;1064;-65
2022/10/12 01:35:50;;;;;;;7.07;3.63;;;;;;;4.07;100.00;101678.88;695621;28;1002;-64
2022/10/12 01:36:22;;;;;;;6.88;3.55;;;;;;;4.07;100.00;101678.88;695242;28;1083;-63
2022/10/12 01:36:47;;;;;;;6.40;3.75;;;;;;;4.13;100.00;101678.22;694334;28;1028;-64
2022/10/12 01:37:19;;;;;;;6.60;3.72;;;;;;;4.14;100.00;101680.00;692949;28;4826;-64
2022/10/12 01:37:51;;;;;;;7.03;3.55;;;;;;;4.07;100.00;101681.47;695841;28;1160;-65
2022/10/12 01:38:24;;;;;;;7.97;3.72;;;;;;;4.05;100.00;101672.75;692743;28;1036;-64
2022/10/12 01:38:50;;;;;;;6.57;3.42;;;;;;;4.03;100.00;101673.50;693422;28;1044;-64
2022/10/12 01:39:24;;;;;;;7.82;3.75;;;;;;;4.09;100.00;101673.75;692905;28;1372;-63
2022/10/12 01:39:56;;;;;;;8.57;3.60;;;;;;;4.09;100.00;101679.81;692830;28;4481;-64
2022/10/12 01:40:28;;;;;;;8.13;3.60;;;;;;;4.12;100.00;101673.00;695480;28;1162;-64
2022/10/12 01:40:58;;;;;;;6.55;3.65;;;;;;;4.12;100.00;101678.19;696541;28;1106;-64
2022/10/12 01:41:25;;;;;;;6.72;3.50;;;;;;;4.15;100.00;101673.97;695346;28;1939;-64
2022/10/12 01:41:59;;;;;;;7.70;3.65;;;;;;;4.03;100.00;101676.09;696895;28;891;-65
2022/10/12 01:42:25;;;;;;;6.82;3.60;;;;;;;3.95;100.00;101677.53;697307;28;1340;-64
2022/10/12 01:42:47;;;;;;;7.93;3.55;;;;;;;3.87;100.00;101677.22;695805;28;4354;-63
2022/10/12 01:43:07;;;;;;;7.18;3.50;;;;;;;3.83;100.00;101683.09;694448;28;1052;-64
2022/10/12 01:43:36;;;;;;;6.87;3.70;;;;;;;3.77;100.00;101680.25;694086;28;1059;-64
2022/10/12 01:43:57;;;;;;;7.80;4.05;;;;;;;3.75;100.00;101675.94;695370;28;1111;-64
2022/10/12 01:44:21;;;;;;;7.90;4.10;;;;;;;3.79;100.00;101678.63;694981;28;5163;-64
2022/10/12 01:44:42;;;;;;;7.80;3.60;;;;;;;3.82;100.00;101676.16;694511;28;1083;-65
2022/10/12 01:45:05;;;;;;;7.87;3.77;;;;;;;3.83;100.00;101686.56;695324;28;1031;-64
2022/10/12 01:45:28;;;;;;;6.88;3.70;;;;;;;3.83;100.00;101681.38;695254;28;1231;-65
2022/10/12 01:45:48;;;;;;;6.45;3.58;;;;;;;3.85;100.00;101678.84;694503;28;4489;-65
2022/10/12 01:46:11;;;;;;;6.95;3.40;;;;;;;3.83;100.00;101681.38;696211;28;1402;-64
2022/10/12 01:46:32;;;;;;;6.78;3.80;;;;;;;3.81;100.00;101676.97;695977;28;1078;-63
2022/10/12 01:46:53;;;;;;;8.68;4.00;;;;;;;3.74;100.00;101676.75;696234;28;788;-64
2022/10/12 01:47:14;;;;;;;7.13;3.47;;;;;;;3.66;100.00;101675.56;694312;28;1137;-64
2022/10/12 01:47:36;;;;;;;7.63;3.77;;;;;;;3.65;100.00;101675.50;695259;28;1300;-65
2022/10/12 01:47:57;;;;;;;7.30;3.80;;;;;;;3.61;100.00;101684.84;695048;28;1106;-64
2022/10/12 01:48:18;;;;;;;6.90;4.00;;;;;;;3.60;100.00;101672.75;696762;28;1043;-64
2022/10/12 01:48:39;;;;;;;7.87;3.80;;;;;;;3.63;100.00;101671.97;695591;28;1273;-64
2022/10/12 01:49:00;;;;;;;7.38;3.80;;;;;;;3.61;100.00;101671.03;695019;28;4576;-64
2022/10/12 01:49:26;;;;;;;6.57;3.72;;;;;;;3.58;100.00;101672.66;694834;28;1351;-64
2022/10/12 01:49:46;;;;;;;7.32;3.97;;;;;;;3.55;100.00;101671.66;695051;28;1189;-64
2022/10/12 01:50:10;;;;;;;6.78;3.80;;;;;;;3.52;100.00;101672.44;692907;28;1401;-65
2022/10/12 01:50:43;;;;;;;6.63;3.83;;;;;;;3.54;100.00;101667.31;693121;28;1065;-64
2022/10/12 01:51:03;;;;;;;6.55;3.60;;;;;;;3.61;100.00;101668.44;690065;28;1257;-63
2022/10/12 01:51:39;;;;;;;7.00;3.85;;;;;;;3.63;100.00;101666.78;693294;28;1220;-64
2022/10/12 01:52:05;;;;;;;8.30;4.10;;;;;;;3.69;100.00;101669.63;694961;28;4544;-65
2022/10/12 01:52:30;;;;;;;6.88;3.90;;;;;;;3.74;100.00;101669.00;696418;28;1293;-64
2022/10/12 01:52:55;;;;;;;5.95;3.60;;;;;;;3.78;100.00;101669.09;694873;28;947;-64
2022/10/12 01:53:27;;;;;;;6.85;3.60;;;;;;;3.77;100.00;101664.75;694957;28;1238;-63
2022/10/12 01:54:14;;;;;;;8.45;3.90;;;;;;;3.82;100.00;101664.13;696806;28;1304;-63
2022/10/12 01:54:54;;;;;;;7.32;3.55;;;;;;;3.79;100.00;101663.13;696939;28;1167;-64
2022/10/12 01:55:37;;;;;;;6.57;3.40;;;;;;;3.74;100.00;101665.53;695260;28;5951;-63
2022/10/12 01:56:10;;;;;;;6.63;3.60;;;;;;;3.66;100.00;101662.63;696786;28;1509;-63
2022/10/12 01:56:35;;;;;;;7.95;3.75;;;;;;;3.64;100.00;101666.88;695204;28;1075;-65